createdAt,value
2019-05-18T00:01:26.179Z,97739.53
2019-05-18T00:03:55.126Z,97734.67
2019-05-18T00:06:24.685Z,97735.52
2019-05-18T00:08:53.397Z,97734.56
2019-05-18T00:11:22.084Z,97731.77
2019-05-18T00:13:51.034Z,97732.47
2019-05-18T00:16:19.796Z,97735.86
2019-05-18T00:18:48.488Z,97737.22
2019-05-18T00:21:17.166Z,97733.73
2019-05-18T00:23:45.880Z,97726.55
2019-05-18T00:26:14.572Z,97734.56
2019-05-18T00:28:43.543Z,97727.02
2019-05-18T00:31:12.521Z,97721.03
2019-05-18T00:33:41.482Z,97726.80
2019-05-18T00:36:10.189Z,97721.84
2019-05-18T00:38:38.887Z,97717.69
2019-05-18T00:41:07.574Z,97714.50
2019-05-18T00:43:36.340Z,97715.00
2019-05-18T00:46:05.597Z,97718.56
2019-05-18T00:48:34.315Z,97708.31
2019-05-18T00:51:03.032Z,97705.38
2019-05-18T00:53:31.868Z,97708.88
2019-05-18T00:56:00.576Z,97708.10
2019-05-18T00:58:29.524Z,97703.50
2019-05-18T01:00:58.224Z,97703.28
2019-05-18T01:03:27.422Z,97705.83
2019-05-18T01:05:56.429Z,97710.53
2019-05-18T01:08:25.978Z,97710.73
2019-05-18T01:10:57.492Z,97708.11
2019-05-18T01:13:28.906Z,97705.17
2019-05-18T01:15:57.855Z,97703.54
2019-05-18T01:18:26.790Z,97703.34
2019-05-18T01:20:55.492Z,97709.38
2019-05-18T01:23:24.427Z,97710.75
2019-05-18T01:25:53.368Z,97711.19
2019-05-18T01:28:22.070Z,97711.85
2019-05-18T01:30:50.937Z,97710.43
2019-05-18T01:33:19.685Z,97709.64
2019-05-18T01:35:48.376Z,97689.91
2019-05-18T01:38:17.572Z,97703.69
2019-05-18T01:40:46.264Z,97700.06
2019-05-18T01:43:15.197Z,97703.64
2019-05-18T01:45:43.920Z,97699.05
2019-05-18T01:48:14.530Z,97700.41
2019-05-18T01:50:43.547Z,97696.26
2019-05-18T01:53:12.302Z,97701.56
2019-05-18T01:55:41.233Z,97700.70
2019-05-18T01:58:10.147Z,97704.16
2019-05-18T02:00:38.834Z,97705.16
2019-05-18T02:03:07.587Z,97703.88
2019-05-18T02:05:36.522Z,97699.77
2019-05-18T02:08:05.517Z,97700.23
2019-05-18T02:10:34.235Z,97699.95
2019-05-18T02:13:03.048Z,97699.44
2019-05-18T02:15:32.320Z,97699.84
2019-05-18T02:18:01.242Z,97705.32
2019-05-18T02:20:29.967Z,97699.38
2019-05-18T02:22:58.894Z,97701.41
2019-05-18T02:25:27.845Z,97701.68
2019-05-18T02:27:56.773Z,97699.72
2019-05-18T02:30:26.004Z,97699.78
2019-05-18T02:32:54.924Z,97697.14
2019-05-18T02:35:23.611Z,97700.06
2019-05-18T02:37:54.192Z,97701.63
2019-05-18T02:40:22.882Z,97705.23
2019-05-18T02:42:51.872Z,97704.95
2019-05-18T02:45:20.961Z,97702.83
2019-05-18T02:47:49.896Z,97698.67
2019-05-18T02:50:18.732Z,97700.69
2019-05-18T02:52:47.633Z,97695.03
2019-05-18T02:55:16.459Z,97701.11
2019-05-18T02:57:45.370Z,97699.49
2019-05-18T03:00:17.346Z,97694.92
2019-05-18T03:02:46.045Z,97690.54
2019-05-18T03:05:15.131Z,97694.48
2019-05-18T03:07:44.302Z,97693.38
2019-05-18T03:10:13.079Z,97699.56
2019-05-18T03:12:41.827Z,97692.27
2019-05-18T03:15:10.921Z,97686.73
2019-05-18T03:17:39.944Z,97692.02
2019-05-18T03:20:09.147Z,97689.53
2019-05-18T03:22:37.977Z,97682.45
2019-05-18T03:25:06.920Z,97682.92
2019-05-18T03:27:35.924Z,97684.06
2019-05-18T03:30:05.069Z,97690.80
2019-05-18T03:32:34.027Z,97687.48
2019-05-18T03:35:02.944Z,97691.83
2019-05-18T03:37:31.627Z,97686.19
2019-05-18T03:40:00.401Z,97685.72
2019-05-18T03:42:29.145Z,97681.06
2019-05-18T03:44:58.176Z,97684.48
2019-05-18T03:47:29.652Z,97682.90
2019-05-18T03:49:58.353Z,97687.12
2019-05-18T03:52:27.277Z,97686.19
2019-05-18T03:54:56.211Z,97682.92
2019-05-18T03:57:27.643Z,97687.09
2019-05-18T03:59:56.371Z,97686.84
2019-05-18T04:02:26.204Z,97679.11
2019-05-18T04:04:55.139Z,97687.80
2019-05-18T04:07:24.412Z,97687.80
2019-05-18T04:09:53.093Z,97685.72
2019-05-18T04:12:22.032Z,97681.63
2019-05-18T04:14:52.303Z,97685.47
2019-05-18T04:17:21.422Z,97685.47
2019-05-18T04:19:50.460Z,97682.52
2019-05-18T04:22:19.403Z,97685.94
2019-05-18T04:24:48.095Z,97681.66
2019-05-18T04:27:17.518Z,97684.64
2019-05-18T04:29:46.688Z,97680.30
2019-05-18T04:32:15.850Z,97680.14
2019-05-18T04:34:44.563Z,97689.93
2019-05-18T04:37:13.525Z,97689.53
2019-05-18T04:39:42.205Z,97694.22
2019-05-18T04:42:10.898Z,97689.81
2019-05-18T04:44:40.063Z,97692.58
2019-05-18T04:47:09.005Z,97688.98
2019-05-18T04:49:38.178Z,97692.45
2019-05-18T04:52:06.950Z,97685.78
2019-05-18T04:54:35.628Z,97686.30
2019-05-18T04:57:04.568Z,97693.63
2019-05-18T04:59:33.250Z,97691.30
2019-05-18T05:02:01.943Z,97695.02
2019-05-18T05:04:30.852Z,97695.28
2019-05-18T05:06:59.768Z,97693.97
2019-05-18T05:09:28.477Z,97695.59
2019-05-18T05:11:57.638Z,97700.24
2019-05-18T05:14:26.340Z,97696.41
2019-05-18T05:16:55.280Z,97690.63
2019-05-18T05:19:24.469Z,97692.03
2019-05-18T05:21:53.884Z,97688.99
2019-05-18T05:24:22.615Z,97682.89
2019-05-18T05:26:51.341Z,97682.44
2019-05-18T05:29:20.323Z,97684.55
2019-05-18T05:31:49.480Z,97684.58
2019-05-18T05:34:18.421Z,97679.94
2019-05-18T05:36:47.352Z,97675.63
2019-05-18T05:39:16.543Z,97675.63
2019-05-18T05:41:45.224Z,97675.08
2019-05-18T05:44:14.269Z,97677.14
2019-05-18T05:46:43.442Z,97674.85
2019-05-18T05:49:12.135Z,97680.70
2019-05-18T05:51:41.051Z,97683.78
2019-05-18T05:54:09.752Z,97676.27
2019-05-18T05:56:38.702Z,97686.99
2019-05-18T05:59:07.646Z,97681.83
2019-05-18T06:01:36.318Z,97690.72
2019-05-18T06:04:05.154Z,97691.77
2019-05-18T06:06:34.645Z,97685.55
2019-05-18T06:09:05.317Z,97695.16
2019-05-18T06:11:34.247Z,97698.15
2019-05-18T06:14:03.704Z,97702.71
2019-05-18T06:16:32.390Z,97700.80
2019-05-18T06:19:01.123Z,97696.73
2019-05-18T06:21:30.052Z,97701.97
2019-05-18T06:23:58.982Z,97704.23
2019-05-18T06:26:27.658Z,97707.71
2019-05-18T06:28:56.337Z,97704.36
2019-05-18T06:31:25.021Z,97701.05
2019-05-18T06:33:53.935Z,97699.77
2019-05-18T06:36:22.702Z,97707.09
2019-05-18T06:38:51.393Z,97706.09
2019-05-18T06:41:20.207Z,97709.89
2019-05-18T06:43:48.890Z,97704.35
2019-05-18T06:46:17.611Z,97714.16
2019-05-18T06:48:46.340Z,97713.00
2019-05-18T06:51:15.102Z,97713.45
2019-05-18T06:53:47.220Z,97711.61
2019-05-18T06:56:16.897Z,97714.59
2019-05-18T06:58:47.051Z,97712.08
2019-05-18T07:01:15.741Z,97716.83
2019-05-18T07:03:45.189Z,97721.94
2019-05-18T07:06:14.319Z,97722.72
2019-05-18T07:08:43.056Z,97716.43
2019-05-18T07:11:12.188Z,97712.81
2019-05-18T07:13:40.895Z,97719.69
2019-05-18T07:16:09.831Z,97716.10
2019-05-18T07:18:38.793Z,97715.56
2019-05-18T07:21:21.360Z,97714.84
2019-05-18T07:23:38.198Z,97721.59
2019-05-18T07:26:07.148Z,97718.08
2019-05-18T07:28:36.096Z,97713.00
2019-05-18T07:31:04.930Z,97708.86
2019-05-18T07:33:33.886Z,97716.76
2019-05-18T07:36:02.814Z,97714.11
2019-05-18T07:38:31.504Z,97713.72
2019-05-18T07:41:00.452Z,97704.12
2019-05-18T07:43:30.765Z,97710.44
2019-05-18T07:45:59.470Z,97710.30
2019-05-18T07:48:28.202Z,97705.10
2019-05-18T07:50:57.395Z,97704.30
2019-05-18T07:53:26.084Z,97702.77
2019-05-18T07:55:55.031Z,97695.73
2019-05-18T07:58:23.991Z,97696.82
2019-05-18T08:00:52.693Z,97693.51
2019-05-18T08:03:21.370Z,97705.91
2019-05-18T08:05:50.137Z,97699.87
2019-05-18T08:08:19.216Z,97706.01
2019-05-18T08:10:47.904Z,97702.22
2019-05-18T08:13:16.614Z,97703.95
2019-05-18T08:15:45.330Z,97706.33
2019-05-18T08:18:14.565Z,97710.20
2019-05-18T08:20:46.091Z,97705.22
2019-05-18T08:23:14.769Z,97697.89
2019-05-18T08:25:43.529Z,97700.08
2019-05-18T08:28:12.325Z,97697.16
2019-05-18T08:30:41.248Z,97697.27
2019-05-18T08:33:10.891Z,97693.55
2019-05-18T08:35:40.313Z,97699.22
2019-05-18T08:38:09.081Z,97696.27
2019-05-18T08:40:39.572Z,97701.47
2019-05-18T08:43:09.157Z,97695.84
2019-05-18T08:45:38.005Z,97700.19
2019-05-18T08:48:06.924Z,97694.23
2019-05-18T08:50:35.615Z,97693.59
2019-05-18T08:53:06.862Z,97687.34
2019-05-18T08:55:36.449Z,97689.86
2019-05-18T08:58:05.238Z,97688.89
2019-05-18T09:00:34.383Z,97689.14
2019-05-18T09:03:03.069Z,97694.81
2019-05-18T09:05:32.267Z,97691.63
2019-05-18T09:08:01.127Z,97693.23
2019-05-18T09:10:29.825Z,97696.28
2019-05-18T09:12:58.529Z,97698.33
2019-05-18T09:15:27.215Z,97699.28
2019-05-18T09:17:55.925Z,97705.52
2019-05-18T09:20:24.896Z,97696.98
2019-05-18T09:22:54.259Z,97695.95
2019-05-18T09:25:23.222Z,97695.45
2019-05-18T09:27:52.350Z,97700.30
2019-05-18T09:30:21.278Z,97692.61
2019-05-18T09:32:51.264Z,97689.17
2019-05-18T09:35:20.203Z,97694.77
2019-05-18T09:37:49.587Z,97692.27
2019-05-18T09:40:18.919Z,97694.34
2019-05-18T09:42:47.828Z,97683.90
2019-05-18T09:45:17.281Z,97688.13
2019-05-18T09:47:46.151Z,97682.81
2019-05-18T09:50:17.431Z,97686.23
2019-05-18T09:52:46.703Z,97683.09
2019-05-18T09:55:15.791Z,97685.47
2019-05-18T09:57:44.498Z,97680.00
2019-05-18T10:00:14.207Z,97683.64
2019-05-18T10:03:03.464Z,97675.84
2019-05-18T10:05:32.824Z,97684.14
2019-05-18T10:08:01.854Z,97670.89
2019-05-18T10:10:33.665Z,97674.70
2019-05-18T10:13:01.740Z,97677.18
2019-05-18T10:15:30.659Z,97677.84
2019-05-18T10:18:00.764Z,97682.23
2019-05-18T10:20:41.309Z,97674.13
2019-05-18T10:23:13.698Z,97671.55
2019-05-18T10:25:41.626Z,97675.77
2019-05-18T10:28:11.712Z,97676.36
2019-05-18T10:30:40.654Z,97674.59
2019-05-18T10:33:09.772Z,97662.88
2019-05-18T10:35:46.602Z,97662.70
2019-05-18T10:38:16.469Z,97664.30
2019-05-18T10:40:45.127Z,97661.13
2019-05-18T10:43:13.970Z,97661.12
2019-05-18T10:45:45.064Z,97664.89
2019-05-18T10:48:13.604Z,97663.69
2019-05-18T10:50:43.377Z,97667.84
2019-05-18T10:53:27.507Z,97659.73
2019-05-18T10:55:42.542Z,97662.49
2019-05-18T10:58:12.004Z,97664.70
2019-05-18T11:00:40.699Z,97660.14
2019-05-18T11:03:09.457Z,97657.14
2019-05-18T11:05:38.127Z,97658.72
2019-05-18T11:08:07.096Z,97660.27
2019-05-18T11:10:35.773Z,97656.73
2019-05-18T11:13:04.792Z,97655.93
2019-05-18T11:15:33.820Z,97655.88
2019-05-18T11:18:02.791Z,97651.09
2019-05-18T11:20:31.605Z,97650.05
2019-05-18T11:23:00.561Z,97651.78
2019-05-18T11:25:29.245Z,97658.91
2019-05-18T11:27:57.930Z,97650.80
2019-05-18T11:30:26.842Z,97654.47
2019-05-18T11:32:55.632Z,97656.17
2019-05-18T11:35:24.710Z,97657.29
2019-05-18T11:37:53.406Z,97653.31
2019-05-18T11:40:22.273Z,97650.27
2019-05-18T11:42:50.979Z,97653.59
2019-05-18T11:45:20.615Z,97650.44
2019-05-18T11:47:49.366Z,97648.69
2019-05-18T11:50:18.669Z,97645.90
2019-05-18T11:52:47.421Z,97638.95
2019-05-18T11:55:18.415Z,97643.73
2019-05-18T11:57:47.116Z,97638.52
2019-05-18T12:00:16.889Z,97637.94
2019-05-18T12:02:45.644Z,97635.91
2019-05-18T12:05:14.657Z,97630.91
2019-05-18T12:07:43.638Z,97637.38
2019-05-18T12:10:12.933Z,97635.88
2019-05-18T12:12:41.623Z,97635.16
2019-05-18T12:15:11.050Z,97643.66
2019-05-18T12:17:40.113Z,97638.97
2019-05-18T12:20:09.464Z,97638.19
2019-05-18T12:22:38.529Z,97633.37
2019-05-18T12:25:07.296Z,97638.05
2019-05-18T12:27:36.106Z,97630.98
2019-05-18T12:30:05.483Z,97633.39
2019-05-18T12:32:37.416Z,97624.22
2019-05-18T12:35:06.632Z,97626.87
2019-05-18T12:37:37.366Z,97636.41
2019-05-18T12:40:06.861Z,97630.41
2019-05-18T12:42:35.850Z,97627.66
2019-05-18T12:45:08.349Z,97630.25
2019-05-18T12:47:39.524Z,97632.72
2019-05-18T12:50:10.469Z,97623.85
2019-05-18T12:52:39.161Z,97627.31
2019-05-18T12:55:08.685Z,97623.03
2019-05-18T12:57:37.783Z,97619.12
2019-05-18T13:00:08.241Z,97620.16
2019-05-18T13:02:36.906Z,97612.16
2019-05-18T13:05:07.223Z,97613.82
2019-05-18T13:07:36.063Z,97611.17
2019-05-18T13:10:05.467Z,97626.19
2019-05-18T13:12:34.145Z,97621.84
2019-05-18T13:15:03.242Z,97620.10
2019-05-18T13:17:31.922Z,97622.84
2019-05-18T13:20:00.739Z,97619.73
2019-05-18T13:22:29.368Z,97617.41
2019-05-18T13:24:58.301Z,97609.81
2019-05-18T13:27:38.767Z,97612.11
2019-05-18T13:29:59.333Z,97607.35
2019-05-18T13:32:28.243Z,97601.37
2019-05-18T13:34:57.443Z,97609.08
2019-05-18T13:37:26.122Z,97613.47
2019-05-18T13:39:54.809Z,97609.00
2019-05-18T13:42:23.478Z,97615.19
2019-05-18T13:44:52.430Z,97610.63
2019-05-18T13:47:21.116Z,97611.88
2019-05-18T13:49:49.827Z,97615.95
2019-05-18T13:52:18.740Z,97615.13
2019-05-18T13:55:02.242Z,97619.02
2019-05-18T13:57:18.144Z,97608.47
2019-05-18T13:59:47.418Z,97605.74
2019-05-18T14:02:16.158Z,97596.56
2019-05-18T14:04:44.858Z,97596.11
2019-05-18T14:07:13.854Z,97595.27
2019-05-18T14:09:42.791Z,97600.16
2019-05-18T14:12:11.705Z,97611.02
2019-05-18T14:14:40.406Z,97614.36
2019-05-18T14:17:09.084Z,97618.97
2019-05-18T14:19:38.024Z,97611.28
2019-05-18T14:22:06.933Z,97609.09
2019-05-18T14:24:35.875Z,97600.98
2019-05-18T14:27:04.631Z,97600.30
2019-05-18T14:29:33.328Z,97603.56
2019-05-18T14:32:02.242Z,97607.58
2019-05-18T14:34:31.200Z,97611.28
2019-05-18T14:37:00.133Z,97610.31
2019-05-18T14:39:28.894Z,97604.56
2019-05-18T14:41:57.818Z,97608.22
2019-05-18T14:44:26.779Z,97605.18
2019-05-18T14:46:55.993Z,97602.54
2019-05-18T14:49:25.245Z,97602.02
2019-05-18T14:51:54.321Z,97601.34
2019-05-18T14:54:25.519Z,97605.92
2019-05-18T14:56:54.827Z,97603.11
2019-05-18T14:59:23.805Z,97595.91
2019-05-18T15:01:52.923Z,97599.92
2019-05-18T15:04:21.713Z,97602.15
2019-05-18T15:06:50.707Z,97590.61
2019-05-18T15:09:19.425Z,97586.33
2019-05-18T15:11:48.112Z,97594.89
2019-05-18T15:14:17.033Z,97592.98
2019-05-18T15:16:45.973Z,97589.39
2019-05-18T15:19:14.930Z,97592.95
2019-05-18T15:21:46.048Z,97592.02
2019-05-18T15:24:15.464Z,97593.48
2019-05-18T15:26:44.397Z,97598.45
2019-05-18T15:29:13.356Z,97596.52
2019-05-18T15:31:42.059Z,97594.14
2019-05-18T15:34:11.087Z,97590.91
2019-05-18T15:36:39.811Z,97592.87
2019-05-18T15:39:11.117Z,97593.58
2019-05-18T15:41:39.807Z,97594.88
2019-05-18T15:44:08.455Z,97593.52
2019-05-18T15:46:37.910Z,97594.42
2019-05-18T15:49:06.659Z,97596.42
2019-05-18T15:51:35.395Z,97587.13
2019-05-18T15:54:04.087Z,97592.83
2019-05-18T15:56:32.771Z,97584.80
2019-05-18T15:59:01.529Z,97594.02
2019-05-18T16:01:30.311Z,97582.97
2019-05-18T16:03:58.975Z,97588.67
2019-05-18T16:06:27.908Z,97587.83
2019-05-18T16:08:56.659Z,97586.45
2019-05-18T16:11:25.430Z,97592.72
2019-05-18T16:13:54.472Z,97590.01
2019-05-18T16:16:23.157Z,97586.20
2019-05-18T16:18:52.093Z,97586.77
2019-05-18T16:21:20.791Z,97584.75
2019-05-18T16:23:49.980Z,97583.04
2019-05-18T16:26:21.505Z,97584.19
2019-05-18T16:28:49.328Z,97591.65
2019-05-18T16:31:18.015Z,97585.11
2019-05-18T16:33:46.705Z,97593.28
2019-05-18T16:36:15.381Z,97594.75
2019-05-18T16:38:44.070Z,97592.41
2019-05-18T16:41:13.010Z,97597.45
2019-05-18T16:43:41.957Z,97592.75
2019-05-18T16:46:10.923Z,97593.17
2019-05-18T16:48:39.706Z,97591.22
2019-05-18T16:51:10.191Z,97587.84
2019-05-18T16:53:38.862Z,97586.64
2019-05-18T16:56:07.637Z,97592.25
2019-05-18T16:58:36.307Z,97590.53
2019-05-18T17:01:05.335Z,97590.28
2019-05-18T17:03:34.140Z,97587.17
2019-05-18T17:06:03.111Z,97596.58
2019-05-18T17:08:31.798Z,97599.56
2019-05-18T17:11:00.469Z,97593.45
2019-05-18T17:13:29.146Z,97598.05
2019-05-18T17:15:57.830Z,97595.09
2019-05-18T17:18:26.763Z,97597.49
2019-05-18T17:20:55.879Z,97604.27
2019-05-18T17:23:24.581Z,97608.44
2019-05-18T17:25:53.596Z,97609.45
2019-05-18T17:28:22.600Z,97608.82
2019-05-18T17:30:51.303Z,97610.86
2019-05-18T17:33:20.047Z,97607.68
2019-05-18T17:35:59.823Z,97614.86
2019-05-18T17:38:19.244Z,97616.84
2019-05-18T17:40:48.191Z,97613.88
2019-05-18T17:43:17.153Z,97624.21
2019-05-18T17:45:48.185Z,97615.08
2019-05-18T17:48:16.852Z,97613.09
2019-05-18T17:50:45.817Z,97616.64
2019-05-18T17:53:14.753Z,97617.40
2019-05-18T17:55:43.698Z,97618.55
2019-05-18T17:58:12.436Z,97621.14
2019-05-18T18:00:41.389Z,97625.66
2019-05-18T18:03:10.309Z,97621.50
2019-05-18T18:05:39.254Z,97623.66
2019-05-18T18:08:08.184Z,97625.59
2019-05-18T18:10:37.104Z,97621.62
2019-05-18T18:13:09.240Z,97629.52
2019-05-18T18:15:36.595Z,97618.97
2019-05-18T18:18:05.396Z,97624.75
2019-05-18T18:20:34.086Z,97626.70
2019-05-18T18:23:02.787Z,97632.62
2019-05-18T18:25:31.741Z,97634.91
2019-05-18T18:28:00.430Z,97629.17
2019-05-18T18:30:29.184Z,97639.43
2019-05-18T18:32:57.893Z,97645.86
2019-05-18T18:35:26.825Z,97640.64
2019-05-18T18:37:55.761Z,97640.17
2019-05-18T18:40:24.523Z,97642.85
2019-05-18T18:42:53.462Z,97646.38
2019-05-18T18:45:22.293Z,97647.50
2019-05-18T18:47:50.983Z,97646.57
2019-05-18T18:50:19.749Z,97651.25
2019-05-18T18:52:48.763Z,97652.75
2019-05-18T18:55:17.535Z,97652.25
2019-05-18T18:57:46.215Z,97651.22
2019-05-18T19:00:15.398Z,97641.06
2019-05-18T19:02:44.069Z,97639.17
2019-05-18T19:05:13.154Z,97647.63
2019-05-18T19:07:41.865Z,97640.83
2019-05-18T19:10:11.003Z,97645.31
2019-05-18T19:12:39.774Z,97648.77
2019-05-18T19:15:10.277Z,97649.98
2019-05-18T19:17:39.423Z,97653.06
2019-05-18T19:20:08.540Z,97652.23
2019-05-18T19:22:37.230Z,97653.91
2019-05-18T19:25:06.447Z,97357.81
2019-05-18T19:27:35.244Z,97653.52
2019-05-18T19:30:09.352Z,97656.20
2019-05-18T19:32:35.316Z,97658.41
2019-05-18T19:35:03.985Z,97664.84
2019-05-18T19:37:32.770Z,97666.13
2019-05-18T19:40:01.453Z,97669.78
2019-05-18T19:42:30.288Z,97670.97
2019-05-18T19:44:59.067Z,97678.84
2019-05-18T19:47:27.844Z,97677.61
2019-05-18T19:49:56.836Z,97675.01
2019-05-18T19:52:26.094Z,97675.59
2019-05-18T19:54:54.771Z,97676.06
2019-05-18T19:57:23.457Z,97678.21
2019-05-18T19:59:52.377Z,97680.06
2019-05-18T20:02:21.089Z,97680.75
2019-05-18T20:05:06.429Z,97683.89
2019-05-18T20:07:20.159Z,97673.58
2019-05-18T20:09:49.083Z,97672.52
2019-05-18T20:12:18.040Z,97673.78
2019-05-18T20:14:46.935Z,97662.13
2019-05-18T20:17:15.663Z,97675.20
2019-05-18T20:19:44.366Z,97675.52
2019-05-18T20:22:13.075Z,97678.28
2019-05-18T20:24:41.744Z,97675.98
2019-05-18T20:27:10.486Z,97677.19
2019-05-18T20:29:39.180Z,97673.25
2019-05-18T20:32:07.859Z,97677.19
2019-05-18T20:34:36.887Z,97675.47
2019-05-18T20:37:05.832Z,97673.16
2019-05-18T20:39:34.809Z,97672.14
2019-05-18T20:42:03.482Z,97672.05
2019-05-18T20:44:32.688Z,97672.20
2019-05-18T20:47:01.370Z,97671.55
2019-05-18T20:49:30.055Z,97679.77
2019-05-18T20:51:58.752Z,97678.72
2019-05-18T20:54:27.718Z,97675.11
2019-05-18T20:56:56.669Z,97671.34
2019-05-18T20:59:25.868Z,97670.27
2019-05-18T21:01:54.573Z,97670.32
2019-05-18T21:04:23.331Z,97670.13
2019-05-18T21:06:52.343Z,97671.20
2019-05-18T21:09:21.056Z,97675.77
2019-05-18T21:11:49.830Z,97676.47
2019-05-18T21:14:18.840Z,97671.45
2019-05-18T21:16:47.520Z,97665.70
2019-05-18T21:19:16.216Z,97673.55
2019-05-18T21:21:44.908Z,97666.16
2019-05-18T21:24:13.597Z,97666.95
2019-05-18T21:26:43.128Z,97666.61
2019-05-18T21:29:12.242Z,97669.22
2019-05-18T21:31:40.930Z,97669.64
2019-05-18T21:34:11.940Z,97671.98
2019-05-18T21:36:40.715Z,97680.88
2019-05-18T21:39:09.791Z,97673.91
2019-05-18T21:41:40.418Z,97675.66
2019-05-18T21:44:09.233Z,97672.70
2019-05-18T21:46:39.150Z,97673.55
2019-05-18T21:49:08.408Z,97677.92
2019-05-18T21:51:37.414Z,97674.51
2019-05-18T21:54:06.365Z,97672.78
2019-05-18T21:56:35.403Z,97674.75
2019-05-18T21:59:11.672Z,97669.31
2019-05-18T22:01:35.032Z,97666.85
2019-05-18T22:04:03.722Z,97665.77
2019-05-18T22:06:32.414Z,97666.16
2019-05-18T22:09:01.138Z,97664.28
2019-05-18T22:11:29.896Z,97659.78
2019-05-18T22:13:58.844Z,97662.44
2019-05-18T22:16:27.566Z,97654.75
2019-05-18T22:18:56.768Z,97660.92
2019-05-18T22:21:25.433Z,97661.16
2019-05-18T22:23:54.235Z,97659.20
2019-05-18T22:26:22.869Z,97661.95
2019-05-18T22:28:52.043Z,97660.77
2019-05-18T22:31:20.723Z,97655.86
2019-05-18T22:33:49.486Z,97646.70
2019-05-18T22:36:18.254Z,97653.25
2019-05-18T22:38:46.925Z,97661.15
2019-05-18T22:41:15.852Z,97664.91
2019-05-18T22:43:44.607Z,97666.50
2019-05-18T22:46:13.628Z,97658.43
2019-05-18T22:48:43.253Z,97658.77
2019-05-18T22:51:14.594Z,97655.91
2019-05-18T22:53:46.489Z,97653.06
2019-05-18T22:56:14.252Z,97653.86
2019-05-18T22:58:42.924Z,97645.76
2019-05-18T23:01:11.692Z,97647.41
2019-05-18T23:03:40.372Z,97647.23
2019-05-18T23:06:09.426Z,97653.30
2019-05-18T23:08:38.374Z,97647.92
2019-05-18T23:11:07.146Z,97648.96
2019-05-18T23:13:35.840Z,97649.03
2019-05-18T23:16:04.862Z,97657.41
2019-05-18T23:18:33.631Z,97648.52
2019-05-18T23:21:04.613Z,97646.75
2019-05-18T23:23:36.120Z,97649.49
2019-05-18T23:26:05.399Z,97643.99
2019-05-18T23:28:34.342Z,97640.27
2019-05-18T23:31:03.040Z,97501.84
2019-05-18T23:33:31.981Z,97638.49
2019-05-18T23:36:00.692Z,97644.36
2019-05-18T23:38:29.742Z,97640.50
2019-05-18T23:40:58.452Z,97638.22
2019-05-18T23:43:27.391Z,97629.45
2019-05-18T23:45:56.773Z,97634.62
2019-05-18T23:48:27.606Z,97636.92
2019-05-18T23:50:57.129Z,97637.24
2019-05-18T23:53:25.875Z,97636.33
2019-05-18T23:55:54.568Z,97629.84
2019-05-18T23:58:23.236Z,97636.04
